LFBZ/BIQ METAR and TAF weather

Enter ICAO airport designator
Station Type Date Time Source
LFBZ METAR 2019/10/23 02:00 UTC NOAA

LFBZ 230200Z AUTO 09005KT 050V130 5000 -RA BR BKN002/// BKN025/// OVC098/// ///CB 11/11 Q1008 TEMPO VRB15G30KT 2000 RA OVC003


Station Type Date Time Source
LFBZ Decoded METAR 2019/10/23 02:00 UTC NOAA

Biarritz, France (LFBZ) 43-28N 001-32W 71M
Oct 22, 2019 - 10:00 PM EDT / 2019.10.23 0200 UTC
Wind: from the E (090 degrees) at 6 MPH (5 KT) (direction variable):0
Visibility: 3 mile(s):0
Sky conditions: overcast
Weather: light rain; mist; Cumulonimbus clouds observed
Temperature: 51 F (11 C)
Dew Point: 51 F (11 C)
Relative Humidity: 100%
Pressure (altimeter): 29.77 in. Hg (1008 hPa)
ob: LFBZ 230200Z AUTO 09005KT 050V130 5000 -RA BR BKN002/// BKN025/// OVC098/// ///CB 11/11 Q1008 TEMPO VRB15G30KT 2000 RA OVC003
cycle: 2

Station Type Date Time Source
LFBZ TAF 2019/10/23 02:00 UTC NOAA

TAF
AMD LFBZ 230220Z 2302/2324 16005KT 9999 BKN020
TEMPO 2302/2308 2000 RA OVC002 PROB30
TEMPO 2302/2304 VRB15G30KT
TEMPO 2308/2312 4000 -RA OVC010 PROB30
TEMPO 2312/2324 4000 -SHRA BKN020TCU

Example: see airport list